createdAt,value
2022-08-25T00:01:48.310Z,10.1
2022-08-25T00:11:48.110Z,9.9
2022-08-25T00:31:48.348Z,10.1
2022-08-25T00:41:48.371Z,9.8
2022-08-25T01:01:48.475Z,9.8
2022-08-25T01:11:48.393Z,9.6
2022-08-25T01:21:48.406Z,9.3
2022-08-25T01:31:48.436Z,9.2
2022-08-25T01:41:48.436Z,9
2022-08-25T01:51:48.472Z,8.9
2022-08-25T02:01:48.529Z,8.8
2022-08-25T02:21:48.337Z,8.5
2022-08-25T02:31:48.551Z,8.2
2022-08-25T02:41:48.348Z,8.1
2022-08-25T03:01:48.380Z,7.9
2022-08-25T03:11:48.572Z,7.9
2022-08-25T03:21:48.613Z,7.8
2022-08-25T03:31:48.708Z,7.6
2022-08-25T03:41:48.631Z,7.3
2022-08-25T04:41:48.714Z,6.5
2022-08-25T04:51:48.727Z,6.7
2022-08-25T05:31:50.758Z,7.4
2022-08-25T05:41:48.805Z,7.5
2022-08-25T05:51:48.840Z,7.7
2022-08-25T06:41:48.915Z,8.7
2022-08-25T06:51:48.893Z,8.9
2022-08-25T07:01:49.599Z,9.2
2022-08-25T07:21:48.958Z,10.1
2022-08-25T07:31:48.990Z,10.8
2022-08-25T07:41:52.003Z,10.9
2022-08-25T07:52:04.205Z,10.9
2022-08-25T08:01:48.918Z,11.4
2022-08-25T08:11:54.328Z,11.7
2022-08-25T08:21:49.031Z,12.3
2022-08-25T08:31:49.117Z,12.5
2022-08-25T08:42:09.591Z,12.6
2022-08-25T08:51:49.060Z,12.6
2022-08-25T09:01:52.599Z,12.9
2022-08-25T09:21:49.125Z,13.3
2022-08-25T09:31:49.211Z,13.8
2022-08-25T09:51:49.160Z,14.6
2022-08-25T10:21:49.215Z,15.3
2022-08-25T10:31:49.217Z,15.7
2022-08-25T10:41:49.305Z,15.8
2022-08-25T11:01:53.436Z,16
2022-08-25T11:11:49.283Z,15.7
2022-08-25T11:21:49.288Z,16
2022-08-25T11:31:53.020Z,16.7
2022-08-25T11:41:49.324Z,16.1
2022-08-25T12:01:49.360Z,17.2
2022-08-25T12:11:49.366Z,17.2
2022-08-25T12:41:49.463Z,18.3
2022-08-25T12:51:49.273Z,18.3
2022-08-25T13:21:49.489Z,19
2022-08-25T13:31:49.935Z,19.4
2022-08-25T13:41:49.528Z,19.4
2022-08-25T14:01:50.230Z,19.6
2022-08-25T14:11:49.566Z,19.2
2022-08-25T14:21:49.742Z,18.9
2022-08-25T14:31:49.669Z,19
2022-08-25T14:41:53.194Z,18.6
2022-08-25T14:51:49.474Z,18.6
2022-08-25T15:01:50.127Z,18.8
2022-08-25T15:11:50.574Z,19.4
2022-08-25T15:21:49.693Z,19.3
2022-08-25T15:31:49.774Z,18.4
2022-08-25T15:51:49.714Z,17
2022-08-25T16:01:49.805Z,16.8
2022-08-25T16:11:55.837Z,16.1
2022-08-25T16:21:49.786Z,16.2
2022-08-25T16:31:54.792Z,16.1
2022-08-25T16:41:49.795Z,15.8
2022-08-25T16:51:49.817Z,15.7
2022-08-25T17:01:49.854Z,15.2
2022-08-25T17:11:49.834Z,14.9
2022-08-25T17:21:50.084Z,14.5
2022-08-25T17:31:49.872Z,14.4
2022-08-25T17:41:49.921Z,14
2022-08-25T17:51:49.896Z,13.7
2022-08-25T18:01:50.054Z,13.4
2022-08-25T18:11:49.940Z,13.2
2022-08-25T18:21:49.942Z,12.9
2022-08-25T18:31:51.942Z,12.7
2022-08-25T18:41:49.970Z,12.4
2022-08-25T18:51:49.973Z,11.9
2022-08-25T19:01:50.362Z,11.8
2022-08-25T19:21:50.870Z,11.7
2022-08-25T19:31:50.044Z,11.6
2022-08-25T19:41:49.869Z,11.5
2022-08-25T19:51:51.169Z,11.3
2022-08-25T20:11:50.095Z,10.8
2022-08-25T20:21:50.134Z,10.5
2022-08-25T20:41:50.160Z,10.2
2022-08-25T21:01:50.238Z,10
2022-08-25T21:11:50.182Z,9.9
2022-08-25T21:21:50.184Z,9.7
2022-08-25T21:31:50.211Z,9.6
2022-08-25T21:41:50.221Z,9.3
2022-08-25T21:51:59.153Z,9
2022-08-25T22:01:50.262Z,9.1
2022-08-25T22:11:50.270Z,9.3
2022-08-25T22:21:50.298Z,9
2022-08-25T22:31:51.097Z,8.8
2022-08-25T22:41:50.345Z,8.7
2022-08-25T22:51:50.315Z,8.6
2022-08-25T23:11:51.246Z,8.4
2022-08-25T23:21:50.370Z,8.5
2022-08-25T23:31:50.398Z,8.6
2022-08-25T23:41:50.421Z,8.5
